sensor_id;sensor_type;location;lat;lon;timestamp;P1;durP1;ratioP1;P2;durP2;ratioP2
71496;SDS011;59317;53.218;5.730;2022-12-19T00:02:04;26.13;;;16.50;;
71496;SDS011;59317;53.218;5.730;2022-12-19T00:04:31;24.73;;;16.10;;
71496;SDS011;59317;53.218;5.730;2022-12-19T00:07:03;25.02;;;16.05;;
71496;SDS011;59317;53.218;5.730;2022-12-19T00:09:32;28.55;;;17.95;;
71496;SDS011;59317;53.218;5.730;2022-12-19T00:11:58;25.02;;;17.05;;
71496;SDS011;59317;53.218;5.730;2022-12-19T00:14:24;27.20;;;18.35;;
71496;SDS011;59317;53.218;5.730;2022-12-19T00:16:50;29.05;;;19.77;;
71496;SDS011;59317;53.218;5.730;2022-12-19T00:19:17;29.20;;;20.95;;
71496;SDS011;59317;53.218;5.730;2022-12-19T00:21:44;34.33;;;21.50;;
71496;SDS011;59317;53.218;5.730;2022-12-19T00:24:10;29.58;;;20.27;;
71496;SDS011;59317;53.218;5.730;2022-12-19T00:26:36;30.25;;;21.08;;
71496;SDS011;59317;53.218;5.730;2022-12-19T00:29:04;30.85;;;22.23;;
71496;SDS011;59317;53.218;5.730;2022-12-19T00:31:34;33.83;;;23.48;;
71496;SDS011;59317;53.218;5.730;2022-12-19T00:34:01;33.00;;;21.20;;
71496;SDS011;59317;53.218;5.730;2022-12-19T00:36:28;31.30;;;19.58;;
71496;SDS011;59317;53.218;5.730;2022-12-19T00:38:55;39.78;;;27.00;;
71496;SDS011;59317;53.218;5.730;2022-12-19T00:41:22;40.37;;;28.60;;
71496;SDS011;59317;53.218;5.730;2022-12-19T00:43:52;34.50;;;22.55;;
71496;SDS011;59317;53.218;5.730;2022-12-19T00:46:19;38.65;;;25.05;;
71496;SDS011;59317;53.218;5.730;2022-12-19T00:48:45;37.17;;;24.05;;
71496;SDS011;59317;53.218;5.730;2022-12-19T00:51:12;30.10;;;20.13;;
71496;SDS011;59317;53.218;5.730;2022-12-19T00:53:42;35.93;;;23.97;;
71496;SDS011;59317;53.218;5.730;2022-12-19T00:56:13;32.25;;;20.92;;
71496;SDS011;59317;53.218;5.730;2022-12-19T00:58:39;32.45;;;21.58;;
71496;SDS011;59317;53.218;5.730;2022-12-19T01:01:07;28.80;;;15.93;;
71496;SDS011;59317;53.218;5.730;2022-12-19T01:03:33;32.13;;;20.55;;
71496;SDS011;59317;53.218;5.730;2022-12-19T01:05:59;32.80;;;20.70;;
71496;SDS011;59317;53.218;5.730;2022-12-19T01:08:25;31.00;;;19.83;;
71496;SDS011;59317;53.218;5.730;2022-12-19T01:10:51;35.63;;;22.05;;
71496;SDS011;59317;53.218;5.730;2022-12-19T01:13:18;35.47;;;24.15;;
71496;SDS011;59317;53.218;5.730;2022-12-19T01:16:06;32.33;;;21.40;;
71496;SDS011;59317;53.218;5.730;2022-12-19T01:18:32;32.38;;;20.50;;
71496;SDS011;59317;53.218;5.730;2022-12-19T01:20:59;41.78;;;27.70;;
71496;SDS011;59317;53.218;5.730;2022-12-19T01:23:29;32.72;;;21.58;;
71496;SDS011;59317;53.218;5.730;2022-12-19T01:25:58;32.08;;;19.52;;
71496;SDS011;59317;53.218;5.730;2022-12-19T01:28:24;34.65;;;22.33;;
71496;SDS011;59317;53.218;5.730;2022-12-19T01:30:50;35.53;;;22.38;;
71496;SDS011;59317;53.218;5.730;2022-12-19T01:33:19;40.85;;;26.30;;
71496;SDS011;59317;53.218;5.730;2022-12-19T01:35:45;36.95;;;23.60;;
71496;SDS011;59317;53.218;5.730;2022-12-19T01:38:15;40.30;;;27.50;;
71496;SDS011;59317;53.218;5.730;2022-12-19T01:40:57;37.53;;;24.98;;
71496;SDS011;59317;53.218;5.730;2022-12-19T01:43:23;36.95;;;25.45;;
71496;SDS011;59317;53.218;5.730;2022-12-19T01:46:09;36.17;;;23.83;;
71496;SDS011;59317;53.218;5.730;2022-12-19T01:48:44;39.53;;;25.20;;
71496;SDS011;59317;53.218;5.730;2022-12-19T01:51:33;36.72;;;24.77;;
71496;SDS011;59317;53.218;5.730;2022-12-19T01:54:00;37.47;;;23.25;;
71496;SDS011;59317;53.218;5.730;2022-12-19T01:56:30;33.22;;;21.05;;
71496;SDS011;59317;53.218;5.730;2022-12-19T01:58:58;34.45;;;22.65;;
71496;SDS011;59317;53.218;5.730;2022-12-19T02:01:26;39.57;;;26.17;;
71496;SDS011;59317;53.218;5.730;2022-12-19T02:03:52;40.93;;;24.87;;
71496;SDS011;59317;53.218;5.730;2022-12-19T02:06:19;39.70;;;26.83;;
71496;SDS011;59317;53.218;5.730;2022-12-19T02:08:46;46.67;;;31.05;;
71496;SDS011;59317;53.218;5.730;2022-12-19T02:11:13;30.98;;;19.67;;
71496;SDS011;59317;53.218;5.730;2022-12-19T02:13:39;30.10;;;19.38;;
71496;SDS011;59317;53.218;5.730;2022-12-19T02:31:45;43.90;;;26.03;;
71496;SDS011;59317;53.218;5.730;2022-12-19T02:37:01;34.80;;;22.70;;
71496;SDS011;59317;53.218;5.730;2022-12-19T02:41:57;37.72;;;22.83;;
71496;SDS011;59317;53.218;5.730;2022-12-19T02:44:35;37.97;;;23.90;;
71496;SDS011;59317;53.218;5.730;2022-12-19T02:47:02;50.20;;;26.30;;
71496;SDS011;59317;53.218;5.730;2022-12-19T02:49:30;34.30;;;21.70;;
71496;SDS011;59317;53.218;5.730;2022-12-19T02:52:06;45.15;;;27.08;;
71496;SDS011;59317;53.218;5.730;2022-12-19T02:54:32;36.05;;;22.13;;
71496;SDS011;59317;53.218;5.730;2022-12-19T02:59:52;31.77;;;19.02;;
71496;SDS011;59317;53.218;5.730;2022-12-19T03:02:28;37.80;;;21.58;;
71496;SDS011;59317;53.218;5.730;2022-12-19T03:10:12;58.00;;;30.50;;
71496;SDS011;59317;53.218;5.730;2022-12-19T03:12:54;60.15;;;31.58;;
71496;SDS011;59317;53.218;5.730;2022-12-19T03:15:21;46.13;;;24.63;;
71496;SDS011;59317;53.218;5.730;2022-12-19T03:17:57;42.50;;;24.90;;
71496;SDS011;59317;53.218;5.730;2022-12-19T03:20:25;66.50;;;33.45;;
71496;SDS011;59317;53.218;5.730;2022-12-19T03:22:53;42.17;;;23.30;;
71496;SDS011;59317;53.218;5.730;2022-12-19T03:25:19;52.97;;;31.13;;
71496;SDS011;59317;53.218;5.730;2022-12-19T03:28:17;67.22;;;35.05;;
71496;SDS011;59317;53.218;5.730;2022-12-19T03:30:45;48.60;;;25.23;;
71496;SDS011;59317;53.218;5.730;2022-12-19T03:33:12;32.83;;;21.52;;
71496;SDS011;59317;53.218;5.730;2022-12-19T03:35:39;38.70;;;25.77;;
71496;SDS011;59317;53.218;5.730;2022-12-19T03:38:15;47.10;;;26.88;;
71496;SDS011;59317;53.218;5.730;2022-12-19T03:40:43;37.17;;;21.13;;
71496;SDS011;59317;53.218;5.730;2022-12-19T03:43:09;42.30;;;24.90;;
71496;SDS011;59317;53.218;5.730;2022-12-19T03:45:54;38.65;;;22.88;;
71496;SDS011;59317;53.218;5.730;2022-12-19T03:48:35;40.50;;;22.65;;
71496;SDS011;59317;53.218;5.730;2022-12-19T03:53:58;27.95;;;17.02;;
71496;SDS011;59317;53.218;5.730;2022-12-19T03:58:51;62.83;;;30.80;;
71496;SDS011;59317;53.218;5.730;2022-12-19T04:01:20;51.05;;;26.10;;
71496;SDS011;59317;53.218;5.730;2022-12-19T04:03:46;64.72;;;32.67;;
71496;SDS011;59317;53.218;5.730;2022-12-19T04:06:24;47.78;;;23.30;;
71496;SDS011;59317;53.218;5.730;2022-12-19T04:08:52;61.42;;;30.88;;
71496;SDS011;59317;53.218;5.730;2022-12-19T04:11:18;63.85;;;31.45;;
71496;SDS011;59317;53.218;5.730;2022-12-19T04:13:49;40.67;;;22.48;;
71496;SDS011;59317;53.218;5.730;2022-12-19T04:16:18;49.67;;;25.10;;
71496;SDS011;59317;53.218;5.730;2022-12-19T04:18:50;53.05;;;26.35;;
71496;SDS011;59317;53.218;5.730;2022-12-19T04:21:19;47.33;;;25.15;;
71496;SDS011;59317;53.218;5.730;2022-12-19T04:23:51;37.97;;;22.33;;
71496;SDS011;59317;53.218;5.730;2022-12-19T04:26:19;44.17;;;24.10;;
71496;SDS011;59317;53.218;5.730;2022-12-19T04:28:48;27.75;;;17.17;;
71496;SDS011;59317;53.218;5.730;2022-12-19T04:31:15;31.23;;;18.33;;
71496;SDS011;59317;53.218;5.730;2022-12-19T04:33:42;62.17;;;32.63;;
71496;SDS011;59317;53.218;5.730;2022-12-19T04:36:20;72.70;;;36.40;;
71496;SDS011;59317;53.218;5.730;2022-12-19T04:38:49;38.67;;;21.95;;
71496;SDS011;59317;53.218;5.730;2022-12-19T04:41:16;34.30;;;18.52;;
71496;SDS011;59317;53.218;5.730;2022-12-19T04:43:42;52.88;;;27.65;;
71496;SDS011;59317;53.218;5.730;2022-12-19T04:46:08;27.00;;;16.63;;
71496;SDS011;59317;53.218;5.730;2022-12-19T04:48:35;40.15;;;21.00;;
71496;SDS011;59317;53.218;5.730;2022-12-19T04:51:04;45.70;;;24.92;;
71496;SDS011;59317;53.218;5.730;2022-12-19T04:53:33;33.88;;;18.85;;
71496;SDS011;59317;53.218;5.730;2022-12-19T04:56:00;59.53;;;28.17;;
71496;SDS011;59317;53.218;5.730;2022-12-19T04:58:26;39.27;;;21.23;;
71496;SDS011;59317;53.218;5.730;2022-12-19T05:00:52;45.97;;;23.02;;
71496;SDS011;59317;53.218;5.730;2022-12-19T05:03:18;35.70;;;19.80;;
71496;SDS011;59317;53.218;5.730;2022-12-19T05:05:45;42.37;;;24.27;;
71496;SDS011;59317;53.218;5.730;2022-12-19T05:08:11;46.27;;;25.93;;
71496;SDS011;59317;53.218;5.730;2022-12-19T05:10:37;47.33;;;25.27;;
71496;SDS011;59317;53.218;5.730;2022-12-19T05:13:03;42.65;;;21.23;;
71496;SDS011;59317;53.218;5.730;2022-12-19T05:15:29;37.78;;;18.70;;
71496;SDS011;59317;53.218;5.730;2022-12-19T05:17:56;32.15;;;16.65;;
71496;SDS011;59317;53.218;5.730;2022-12-19T05:20:22;57.25;;;28.08;;
71496;SDS011;59317;53.218;5.730;2022-12-19T05:22:48;52.53;;;24.55;;
71496;SDS011;59317;53.218;5.730;2022-12-19T05:25:14;42.88;;;21.48;;
71496;SDS011;59317;53.218;5.730;2022-12-19T05:27:40;43.92;;;21.50;;
71496;SDS011;59317;53.218;5.730;2022-12-19T05:30:06;61.53;;;30.15;;
71496;SDS011;59317;53.218;5.730;2022-12-19T05:32:32;52.08;;;24.63;;
71496;SDS011;59317;53.218;5.730;2022-12-19T05:34:58;62.35;;;28.08;;
71496;SDS011;59317;53.218;5.730;2022-12-19T05:37:27;53.60;;;27.17;;
71496;SDS011;59317;53.218;5.730;2022-12-19T05:39:53;39.03;;;19.85;;
71496;SDS011;59317;53.218;5.730;2022-12-19T05:42:19;51.85;;;26.13;;
71496;SDS011;59317;53.218;5.730;2022-12-19T05:44:45;38.75;;;19.92;;
71496;SDS011;59317;53.218;5.730;2022-12-19T05:47:11;44.53;;;23.90;;
71496;SDS011;59317;53.218;5.730;2022-12-19T05:49:40;36.38;;;20.95;;
71496;SDS011;59317;53.218;5.730;2022-12-19T05:52:09;39.83;;;22.05;;
71496;SDS011;59317;53.218;5.730;2022-12-19T05:54:35;48.70;;;26.17;;
71496;SDS011;59317;53.218;5.730;2022-12-19T05:57:01;32.05;;;19.10;;
71496;SDS011;59317;53.218;5.730;2022-12-19T05:59:27;40.23;;;21.47;;
71496;SDS011;59317;53.218;5.730;2022-12-19T06:01:53;44.20;;;22.20;;
71496;SDS011;59317;53.218;5.730;2022-12-19T06:04:19;48.63;;;25.98;;
71496;SDS011;59317;53.218;5.730;2022-12-19T06:06:45;45.97;;;23.85;;
71496;SDS011;59317;53.218;5.730;2022-12-19T06:09:12;48.67;;;23.45;;
71496;SDS011;59317;53.218;5.730;2022-12-19T06:11:37;41.17;;;21.48;;
71496;SDS011;59317;53.218;5.730;2022-12-19T06:14:07;38.70;;;21.13;;
71496;SDS011;59317;53.218;5.730;2022-12-19T06:16:32;28.52;;;16.80;;
71496;SDS011;59317;53.218;5.730;2022-12-19T06:18:58;38.83;;;22.05;;
71496;SDS011;59317;53.218;5.730;2022-12-19T06:21:24;38.50;;;21.37;;
71496;SDS011;59317;53.218;5.730;2022-12-19T06:24:09;24.75;;;15.88;;
71496;SDS011;59317;53.218;5.730;2022-12-19T06:26:35;42.70;;;21.48;;
71496;SDS011;59317;53.218;5.730;2022-12-19T06:29:01;36.90;;;20.15;;
71496;SDS011;59317;53.218;5.730;2022-12-19T06:31:27;30.63;;;18.50;;
71496;SDS011;59317;53.218;5.730;2022-12-19T06:33:53;30.30;;;16.80;;
71496;SDS011;59317;53.218;5.730;2022-12-19T06:38:46;26.05;;;14.05;;
71496;SDS011;59317;53.218;5.730;2022-12-19T06:41:12;13.73;;;8.43;;
71496;SDS011;59317;53.218;5.730;2022-12-19T06:43:58;25.47;;;15.33;;
71496;SDS011;59317;53.218;5.730;2022-12-19T06:46:24;24.40;;;15.07;;
71496;SDS011;59317;53.218;5.730;2022-12-19T06:48:50;31.05;;;16.73;;
71496;SDS011;59317;53.218;5.730;2022-12-19T06:51:17;32.75;;;18.92;;
71496;SDS011;59317;53.218;5.730;2022-12-19T06:53:43;29.58;;;18.48;;
71496;SDS011;59317;53.218;5.730;2022-12-19T06:56:09;25.85;;;16.17;;
71496;SDS011;59317;53.218;5.730;2022-12-19T06:58:36;21.17;;;13.80;;
71496;SDS011;59317;53.218;5.730;2022-12-19T07:01:02;24.10;;;15.55;;
71496;SDS011;59317;53.218;5.730;2022-12-19T07:03:31;28.63;;;17.70;;
71496;SDS011;59317;53.218;5.730;2022-12-19T07:06:00;21.55;;;13.38;;
71496;SDS011;59317;53.218;5.730;2022-12-19T07:08:26;26.55;;;15.32;;
71496;SDS011;59317;53.218;5.730;2022-12-19T07:10:53;24.20;;;14.15;;
71496;SDS011;59317;53.218;5.730;2022-12-19T07:13:20;30.58;;;17.15;;
71496;SDS011;59317;53.218;5.730;2022-12-19T07:15:46;20.70;;;12.15;;
71496;SDS011;59317;53.218;5.730;2022-12-19T07:18:12;25.42;;;15.15;;
71496;SDS011;59317;53.218;5.730;2022-12-19T07:20:38;23.27;;;14.13;;
71496;SDS011;59317;53.218;5.730;2022-12-19T07:23:06;25.25;;;16.00;;
71496;SDS011;59317;53.218;5.730;2022-12-19T07:25:33;27.75;;;15.27;;
71496;SDS011;59317;53.218;5.730;2022-12-19T07:27:59;24.50;;;14.45;;
71496;SDS011;59317;53.218;5.730;2022-12-19T07:30:25;18.83;;;11.77;;
71496;SDS011;59317;53.218;5.730;2022-12-19T07:32:51;22.77;;;12.75;;
71496;SDS011;59317;53.218;5.730;2022-12-19T07:35:26;18.30;;;11.65;;
71496;SDS011;59317;53.218;5.730;2022-12-19T07:37:52;20.70;;;11.82;;
71496;SDS011;59317;53.218;5.730;2022-12-19T07:40:18;24.52;;;12.73;;
71496;SDS011;59317;53.218;5.730;2022-12-19T07:42:44;19.57;;;11.67;;
71496;SDS011;59317;53.218;5.730;2022-12-19T07:45:18;25.97;;;14.10;;
71496;SDS011;59317;53.218;5.730;2022-12-19T07:47:44;23.50;;;13.53;;
71496;SDS011;59317;53.218;5.730;2022-12-19T07:50:11;24.10;;;13.40;;
71496;SDS011;59317;53.218;5.730;2022-12-19T07:52:38;17.73;;;9.40;;
71496;SDS011;59317;53.218;5.730;2022-12-19T07:55:04;25.25;;;14.57;;
71496;SDS011;59317;53.218;5.730;2022-12-19T07:57:30;24.02;;;14.02;;
71496;SDS011;59317;53.218;5.730;2022-12-19T07:59:56;27.08;;;13.43;;
71496;SDS011;59317;53.218;5.730;2022-12-19T08:02:22;25.38;;;14.60;;
71496;SDS011;59317;53.218;5.730;2022-12-19T08:04:48;21.30;;;11.45;;
71496;SDS011;59317;53.218;5.730;2022-12-19T08:07:15;25.70;;;14.02;;
71496;SDS011;59317;53.218;5.730;2022-12-19T08:09:41;23.23;;;11.63;;
71496;SDS011;59317;53.218;5.730;2022-12-19T08:12:07;25.02;;;13.43;;
71496;SDS011;59317;53.218;5.730;2022-12-19T08:14:33;23.15;;;12.40;;
71496;SDS011;59317;53.218;5.730;2022-12-19T08:16:58;22.85;;;11.93;;
71496;SDS011;59317;53.218;5.730;2022-12-19T08:19:25;26.60;;;13.35;;
71496;SDS011;59317;53.218;5.730;2022-12-19T08:21:50;24.27;;;13.93;;
71496;SDS011;59317;53.218;5.730;2022-12-19T08:24:16;23.33;;;12.90;;
71496;SDS011;59317;53.218;5.730;2022-12-19T08:26:43;24.77;;;13.63;;
71496;SDS011;59317;53.218;5.730;2022-12-19T08:29:09;25.08;;;15.30;;
71496;SDS011;59317;53.218;5.730;2022-12-19T08:31:35;20.33;;;11.57;;
71496;SDS011;59317;53.218;5.730;2022-12-19T08:34:01;26.58;;;14.80;;
71496;SDS011;59317;53.218;5.730;2022-12-19T08:36:27;23.20;;;12.83;;
71496;SDS011;59317;53.218;5.730;2022-12-19T08:38:53;24.35;;;14.25;;
71496;SDS011;59317;53.218;5.730;2022-12-19T08:41:19;19.88;;;11.65;;
71496;SDS011;59317;53.218;5.730;2022-12-19T08:43:49;23.17;;;12.73;;
71496;SDS011;59317;53.218;5.730;2022-12-19T08:46:15;21.63;;;12.40;;
71496;SDS011;59317;53.218;5.730;2022-12-19T08:48:42;25.42;;;14.13;;
71496;SDS011;59317;53.218;5.730;2022-12-19T08:51:09;24.40;;;13.13;;
71496;SDS011;59317;53.218;5.730;2022-12-19T08:53:36;22.45;;;13.95;;
71496;SDS011;59317;53.218;5.730;2022-12-19T08:56:06;23.58;;;13.63;;
71496;SDS011;59317;53.218;5.730;2022-12-19T08:58:32;24.58;;;15.32;;
71496;SDS011;59317;53.218;5.730;2022-12-19T09:00:59;27.15;;;16.13;;
71496;SDS011;59317;53.218;5.730;2022-12-19T09:03:25;24.73;;;16.08;;
71496;SDS011;59317;53.218;5.730;2022-12-19T09:05:55;28.13;;;15.83;;
71496;SDS011;59317;53.218;5.730;2022-12-19T09:08:21;26.75;;;16.85;;
71496;SDS011;59317;53.218;5.730;2022-12-19T09:10:48;26.23;;;17.42;;
71496;SDS011;59317;53.218;5.730;2022-12-19T09:13:14;23.93;;;16.33;;
71496;SDS011;59317;53.218;5.730;2022-12-19T09:15:40;26.53;;;16.97;;
71496;SDS011;59317;53.218;5.730;2022-12-19T09:18:06;25.70;;;16.88;;
71496;SDS011;59317;53.218;5.730;2022-12-19T09:20:32;26.23;;;16.77;;
71496;SDS011;59317;53.218;5.730;2022-12-19T09:22:58;24.27;;;15.68;;
71496;SDS011;59317;53.218;5.730;2022-12-19T09:25:24;25.63;;;16.15;;
71496;SDS011;59317;53.218;5.730;2022-12-19T09:27:50;24.75;;;16.05;;
71496;SDS011;59317;53.218;5.730;2022-12-19T09:30:16;23.70;;;15.40;;
71496;SDS011;59317;53.218;5.730;2022-12-19T09:32:42;21.05;;;14.57;;
71496;SDS011;59317;53.218;5.730;2022-12-19T09:35:08;19.55;;;14.15;;
71496;SDS011;59317;53.218;5.730;2022-12-19T09:37:34;20.77;;;14.43;;
71496;SDS011;59317;53.218;5.730;2022-12-19T09:40:00;20.77;;;14.50;;
71496;SDS011;59317;53.218;5.730;2022-12-19T09:47:28;19.98;;;13.07;;
71496;SDS011;59317;53.218;5.730;2022-12-19T09:49:55;20.17;;;12.70;;
71496;SDS011;59317;53.218;5.730;2022-12-19T09:52:24;17.98;;;12.63;;
71496;SDS011;59317;53.218;5.730;2022-12-19T09:54:52;20.33;;;12.52;;
71496;SDS011;59317;53.218;5.730;2022-12-19T09:57:22;17.70;;;11.27;;
71496;SDS011;59317;53.218;5.730;2022-12-19T09:59:55;20.20;;;13.00;;
71496;SDS011;59317;53.218;5.730;2022-12-19T10:07:45;18.08;;;11.80;;
71496;SDS011;59317;53.218;5.730;2022-12-19T10:10:15;18.48;;;12.02;;
71496;SDS011;59317;53.218;5.730;2022-12-19T10:15:12;18.50;;;11.30;;
71496;SDS011;59317;53.218;5.730;2022-12-19T10:20:21;18.10;;;12.10;;
71496;SDS011;59317;53.218;5.730;2022-12-19T10:34:15;17.93;;;11.37;;
71496;SDS011;59317;53.218;5.730;2022-12-19T10:36:21;17.57;;;10.27;;
71496;SDS011;59317;53.218;5.730;2022-12-19T10:39:00;18.30;;;11.63;;
71496;SDS011;59317;53.218;5.730;2022-12-19T10:41:30;17.20;;;10.57;;
71496;SDS011;59317;53.218;5.730;2022-12-19T10:44:00;17.40;;;10.60;;
71496;SDS011;59317;53.218;5.730;2022-12-19T10:46:46;16.77;;;10.43;;
71496;SDS011;59317;53.218;5.730;2022-12-19T10:49:20;17.47;;;10.20;;
71496;SDS011;59317;53.218;5.730;2022-12-19T10:52:05;17.08;;;10.88;;
71496;SDS011;59317;53.218;5.730;2022-12-19T10:57:36;14.33;;;8.47;;
71496;SDS011;59317;53.218;5.730;2022-12-19T10:59:57;15.63;;;9.00;;
71496;SDS011;59317;53.218;5.730;2022-12-19T11:02:40;15.68;;;9.30;;
71496;SDS011;59317;53.218;5.730;2022-12-19T11:05:23;14.90;;;8.98;;
71496;SDS011;59317;53.218;5.730;2022-12-19T11:15:45;14.30;;;8.93;;
71496;SDS011;59317;53.218;5.730;2022-12-19T11:18:12;13.57;;;8.07;;
71496;SDS011;59317;53.218;5.730;2022-12-19T11:20:40;13.50;;;8.48;;
71496;SDS011;59317;53.218;5.730;2022-12-19T11:23:10;14.35;;;8.00;;
71496;SDS011;59317;53.218;5.730;2022-12-19T11:25:40;16.23;;;9.13;;
71496;SDS011;59317;53.218;5.730;2022-12-19T11:33:31;16.00;;;10.02;;
71496;SDS011;59317;53.218;5.730;2022-12-19T11:35:57;16.60;;;10.40;;
71496;SDS011;59317;53.218;5.730;2022-12-19T11:39:07;14.43;;;9.02;;
71496;SDS011;59317;53.218;5.730;2022-12-19T11:43:48;16.17;;;9.90;;
71496;SDS011;59317;53.218;5.730;2022-12-19T11:53:59;16.50;;;10.18;;
71496;SDS011;59317;53.218;5.730;2022-12-19T11:56:27;16.52;;;9.48;;
71496;SDS011;59317;53.218;5.730;2022-12-19T11:58:54;13.73;;;8.15;;
71496;SDS011;59317;53.218;5.730;2022-12-19T12:06:46;14.07;;;7.97;;
71496;SDS011;59317;53.218;5.730;2022-12-19T12:12:03;13.83;;;8.67;;
71496;SDS011;59317;53.218;5.730;2022-12-19T12:30:19;11.15;;;6.85;;
71496;SDS011;59317;53.218;5.730;2022-12-19T12:32:57;11.10;;;7.00;;
71496;SDS011;59317;53.218;5.730;2022-12-19T12:35:36;11.70;;;7.05;;
71496;SDS011;59317;53.218;5.730;2022-12-19T12:38:23;10.77;;;6.63;;
71496;SDS011;59317;53.218;5.730;2022-12-19T12:43:40;11.87;;;6.93;;
71496;SDS011;59317;53.218;5.730;2022-12-19T12:46:11;11.45;;;6.90;;
71496;SDS011;59317;53.218;5.730;2022-12-19T12:48:42;11.75;;;6.10;;
71496;SDS011;59317;53.218;5.730;2022-12-19T12:51:10;11.67;;;6.63;;
71496;SDS011;59317;53.218;5.730;2022-12-19T12:53:37;11.10;;;6.88;;
71496;SDS011;59317;53.218;5.730;2022-12-19T12:56:09;12.07;;;7.32;;
71496;SDS011;59317;53.218;5.730;2022-12-19T13:01:25;13.10;;;7.20;;
71496;SDS011;59317;53.218;5.730;2022-12-19T13:03:59;13.68;;;8.07;;
71496;SDS011;59317;53.218;5.730;2022-12-19T13:06:41;14.60;;;7.53;;
71496;SDS011;59317;53.218;5.730;2022-12-19T13:11:37;13.13;;;7.82;;
71496;SDS011;59317;53.218;5.730;2022-12-19T13:17:08;14.18;;;8.48;;
71496;SDS011;59317;53.218;5.730;2022-12-19T13:19:36;16.33;;;8.93;;
71496;SDS011;59317;53.218;5.730;2022-12-19T13:24:48;15.20;;;9.20;;
71496;SDS011;59317;53.218;5.730;2022-12-19T13:27:32;16.10;;;9.57;;
71496;SDS011;59317;53.218;5.730;2022-12-19T13:32:31;16.52;;;9.10;;
71496;SDS011;59317;53.218;5.730;2022-12-19T13:34:58;17.00;;;10.50;;
71496;SDS011;59317;53.218;5.730;2022-12-19T13:37:31;16.95;;;10.73;;
71496;SDS011;59317;53.218;5.730;2022-12-19T13:45:50;19.20;;;11.27;;
71496;SDS011;59317;53.218;5.730;2022-12-19T13:48:19;17.00;;;10.57;;
71496;SDS011;59317;53.218;5.730;2022-12-19T13:50:47;17.20;;;10.32;;
71496;SDS011;59317;53.218;5.730;2022-12-19T13:53:14;19.08;;;12.43;;
71496;SDS011;59317;53.218;5.730;2022-12-19T13:55:41;17.20;;;10.30;;
71496;SDS011;59317;53.218;5.730;2022-12-19T13:58:13;17.87;;;11.80;;
71496;SDS011;59317;53.218;5.730;2022-12-19T14:00:42;21.17;;;12.80;;
71496;SDS011;59317;53.218;5.730;2022-12-19T14:03:15;20.90;;;12.27;;
71496;SDS011;59317;53.218;5.730;2022-12-19T14:05:41;19.43;;;12.17;;
71496;SDS011;59317;53.218;5.730;2022-12-19T14:08:07;18.77;;;12.20;;
71496;SDS011;59317;53.218;5.730;2022-12-19T14:10:35;18.77;;;13.25;;
71496;SDS011;59317;53.218;5.730;2022-12-19T14:13:06;19.65;;;12.77;;
71496;SDS011;59317;53.218;5.730;2022-12-19T14:15:54;19.60;;;12.17;;
71496;SDS011;59317;53.218;5.730;2022-12-19T14:18:24;19.08;;;12.65;;
71496;SDS011;59317;53.218;5.730;2022-12-19T14:21:05;18.05;;;11.50;;
71496;SDS011;59317;53.218;5.730;2022-12-19T14:23:32;17.63;;;11.32;;
71496;SDS011;59317;53.218;5.730;2022-12-19T14:25:58;18.05;;;12.27;;
71496;SDS011;59317;53.218;5.730;2022-12-19T14:28:27;18.63;;;11.98;;
71496;SDS011;59317;53.218;5.730;2022-12-19T14:31:01;16.92;;;10.88;;
71496;SDS011;59317;53.218;5.730;2022-12-19T14:33:31;16.40;;;10.52;;
71496;SDS011;59317;53.218;5.730;2022-12-19T14:35:58;15.40;;;9.60;;
71496;SDS011;59317;53.218;5.730;2022-12-19T14:38:25;14.38;;;9.50;;
71496;SDS011;59317;53.218;5.730;2022-12-19T14:40:52;15.65;;;9.65;;
71496;SDS011;59317;53.218;5.730;2022-12-19T14:43:23;17.45;;;9.63;;
71496;SDS011;59317;53.218;5.730;2022-12-19T14:48:56;15.32;;;9.18;;
71496;SDS011;59317;53.218;5.730;2022-12-19T14:51:33;14.13;;;8.30;;
71496;SDS011;59317;53.218;5.730;2022-12-19T14:56:29;13.33;;;8.20;;
71496;SDS011;59317;53.218;5.730;2022-12-19T14:58:57;12.18;;;7.50;;
71496;SDS011;59317;53.218;5.730;2022-12-19T15:01:31;12.02;;;7.57;;
71496;SDS011;59317;53.218;5.730;2022-12-19T15:06:28;14.40;;;7.70;;
71496;SDS011;59317;53.218;5.730;2022-12-19T15:08:59;14.50;;;7.63;;
71496;SDS011;59317;53.218;5.730;2022-12-19T15:11:31;13.52;;;7.38;;
71496;SDS011;59317;53.218;5.730;2022-12-19T15:14:24;13.48;;;7.47;;
71496;SDS011;59317;53.218;5.730;2022-12-19T15:16:59;14.20;;;8.07;;
71496;SDS011;59317;53.218;5.730;2022-12-19T15:19:25;14.57;;;7.77;;
71496;SDS011;59317;53.218;5.730;2022-12-19T15:21:51;13.00;;;7.07;;
71496;SDS011;59317;53.218;5.730;2022-12-19T15:24:17;15.23;;;8.73;;
71496;SDS011;59317;53.218;5.730;2022-12-19T15:26:47;13.77;;;7.00;;
71496;SDS011;59317;53.218;5.730;2022-12-19T15:29:14;14.43;;;7.80;;
71496;SDS011;59317;53.218;5.730;2022-12-19T15:31:41;12.53;;;6.43;;
71496;SDS011;59317;53.218;5.730;2022-12-19T15:36:52;14.90;;;6.93;;
71496;SDS011;59317;53.218;5.730;2022-12-19T15:39:19;13.13;;;6.43;;
71496;SDS011;59317;53.218;5.730;2022-12-19T15:41:46;13.32;;;6.90;;
71496;SDS011;59317;53.218;5.730;2022-12-19T15:44:17;14.35;;;6.47;;
71496;SDS011;59317;53.218;5.730;2022-12-19T15:46:45;11.93;;;5.93;;
71496;SDS011;59317;53.218;5.730;2022-12-19T15:49:15;12.00;;;5.60;;
71496;SDS011;59317;53.218;5.730;2022-12-19T15:51:42;12.07;;;5.95;;
71496;SDS011;59317;53.218;5.730;2022-12-19T15:54:08;11.38;;;5.95;;
71496;SDS011;59317;53.218;5.730;2022-12-19T15:56:35;10.70;;;6.00;;
71496;SDS011;59317;53.218;5.730;2022-12-19T15:59:02;11.50;;;5.80;;
71496;SDS011;59317;53.218;5.730;2022-12-19T16:01:29;9.63;;;5.63;;
71496;SDS011;59317;53.218;5.730;2022-12-19T16:03:57;10.82;;;5.95;;
71496;SDS011;59317;53.218;5.730;2022-12-19T16:06:23;10.85;;;5.90;;
71496;SDS011;59317;53.218;5.730;2022-12-19T16:08:49;10.63;;;5.60;;
71496;SDS011;59317;53.218;5.730;2022-12-19T16:11:20;10.97;;;5.77;;
71496;SDS011;59317;53.218;5.730;2022-12-19T16:13:51;11.97;;;5.97;;
71496;SDS011;59317;53.218;5.730;2022-12-19T16:16:17;10.70;;;5.93;;
71496;SDS011;59317;53.218;5.730;2022-12-19T16:18:43;10.80;;;6.18;;
71496;SDS011;59317;53.218;5.730;2022-12-19T16:21:16;10.43;;;6.05;;
71496;SDS011;59317;53.218;5.730;2022-12-19T16:23:42;10.33;;;6.03;;
71496;SDS011;59317;53.218;5.730;2022-12-19T16:26:17;10.13;;;5.67;;
71496;SDS011;59317;53.218;5.730;2022-12-19T16:28:48;12.25;;;5.50;;
71496;SDS011;59317;53.218;5.730;2022-12-19T16:31:14;11.85;;;5.75;;
71496;SDS011;59317;53.218;5.730;2022-12-19T16:33:41;9.77;;;5.70;;
71496;SDS011;59317;53.218;5.730;2022-12-19T16:36:07;11.93;;;6.00;;
71496;SDS011;59317;53.218;5.730;2022-12-19T16:38:34;9.95;;;5.35;;
71496;SDS011;59317;53.218;5.730;2022-12-19T16:41:00;10.57;;;5.82;;
71496;SDS011;59317;53.218;5.730;2022-12-19T16:43:27;15.02;;;5.90;;
71496;SDS011;59317;53.218;5.730;2022-12-19T16:45:57;10.63;;;5.63;;
71496;SDS011;59317;53.218;5.730;2022-12-19T16:48:25;11.65;;;6.10;;
71496;SDS011;59317;53.218;5.730;2022-12-19T16:50:51;10.15;;;5.70;;
71496;SDS011;59317;53.218;5.730;2022-12-19T16:53:18;11.00;;;6.57;;
71496;SDS011;59317;53.218;5.730;2022-12-19T16:55:44;12.23;;;5.75;;
71496;SDS011;59317;53.218;5.730;2022-12-19T16:58:15;11.35;;;6.00;;
71496;SDS011;59317;53.218;5.730;2022-12-19T17:00:43;10.82;;;5.80;;
71496;SDS011;59317;53.218;5.730;2022-12-19T17:05:44;12.40;;;6.05;;